Time;durP1;ratioP1;P1;durP2;ratioP2;P2;SDS_P1;SDS_P2;PMS_P1;PMS_P2;Temp;Humidity;BMP_temperature;BMP_pressure;BME280_temperature;BME280_humidity;BME280_pressure;Samples;Min_cycle;Max_cycle;Signal;HPM_P1;HPM_P2
2023/04/03 00:01:34;;;;;;;1.27;1.20;;;;;;;13.28;51.40;98820.44;5050806;28;20189;-73
2023/04/03 00:04:01;;;;;;;3.13;1.20;;;;;;;13.19;51.65;98811.16;5051465;28;20278;-71
2023/04/03 00:06:28;;;;;;;1.20;1.10;;;;;;;13.20;51.59;98819.97;5050880;28;20193;-71
2023/04/03 00:08:55;;;;;;;1.10;1.10;;;;;;;13.19;51.76;98810.38;5050819;28;20662;-71
2023/04/03 00:11:23;;;;;;;2.73;1.30;;;;;;;13.20;52.08;98811.97;5064374;28;20199;-72
2023/04/03 00:13:49;;;;;;;1.60;1.50;;;;;;;13.22;52.11;98815.22;5071261;28;20260;-72
2023/04/03 00:16:16;;;;;;;1.30;1.20;;;;;;;13.21;51.72;98809.09;5070939;28;20726;-72
2023/04/03 00:18:43;;;;;;;1.77;1.10;;;;;;;13.22;52.15;98810.69;5070391;28;20212;-72
2023/04/03 00:21:12;;;;;;;1.30;1.07;;;;;;;13.21;52.22;98806.41;5071312;28;20196;-72
2023/04/03 00:23:39;;;;;;;2.27;1.50;;;;;;;13.16;52.52;98819.63;5070784;28;20592;-72
2023/04/03 00:26:06;;;;;;;1.73;1.10;;;;;;;13.18;53.40;98808.72;5070930;28;20245;-72
2023/04/03 00:28:34;;;;;;;1.00;1.00;;;;;;;13.10;53.00;98812.53;5051380;28;20231;-72
2023/04/03 00:31:01;;;;;;;2.13;1.57;;;;;;;12.97;53.24;98809.22;5050658;28;20193;-72
2023/04/03 00:33:28;;;;;;;2.17;1.60;;;;;;;12.85;54.27;98819.84;5051029;28;20232;-72
2023/04/03 00:35:54;;;;;;;1.33;1.33;;;;;;;12.76;54.40;98815.88;5050659;28;20201;-72
2023/04/03 00:38:21;;;;;;;1.60;1.50;;;;;;;12.72;54.79;98814.72;5050905;28;20253;-72
2023/04/03 00:40:50;;;;;;;1.73;1.63;;;;;;;12.66;55.20;98814.81;5057310;28;20261;-72
2023/04/03 00:43:18;;;;;;;3.50;1.50;;;;;;;12.60;55.97;98811.19;5070383;28;20588;-71
2023/04/03 00:45:48;;;;;;;4.53;1.90;;;;;;;12.57;55.71;98819.63;5070224;28;20190;-71
2023/04/03 00:48:19;;;;;;;2.67;1.80;;;;;;;12.56;56.12;98815.34;5050843;28;20207;-73
2023/04/03 00:50:47;;;;;;;3.30;1.80;;;;;;;12.52;56.47;98813.34;5051094;28;20196;-72
2023/04/03 00:53:18;;;;;;;1.70;1.60;;;;;;;12.47;55.87;98806.03;5050617;28;20227;-72
2023/04/03 00:55:48;;;;;;;2.30;2.00;;;;;;;12.47;56.44;98808.69;5050757;28;20192;-72
2023/04/03 00:58:16;;;;;;;3.23;1.67;;;;;;;12.56;56.74;98810.00;5050264;28;20192;-73
2023/04/03 01:00:48;;;;;;;1.73;1.60;;;;;;;12.56;57.27;98815.34;5052314;28;20675;-72
2023/04/03 01:03:15;;;;;;;2.03;1.73;;;;;;;12.57;57.00;98819.63;5053995;28;20192;-72
2023/04/03 01:05:42;;;;;;;2.23;2.13;;;;;;;12.56;57.31;98812.66;5054090;28;20199;-72
2023/04/03 01:08:09;;;;;;;1.93;1.67;;;;;;;12.57;57.20;98806.28;5053990;28;20256;-72
2023/04/03 01:10:36;;;;;;;1.77;1.67;;;;;;;12.56;57.61;98810.00;5054134;28;20286;-72
2023/04/03 01:13:17;;;;;;;1.63;1.60;;;;;;;12.52;57.16;98814.16;5053102;28;20284;-72
2023/04/03 01:15:45;;;;;;;1.70;1.60;;;;;;;12.53;57.61;98810.44;5053998;28;20247;-73
2023/04/03 01:18:12;;;;;;;2.17;2.07;;;;;;;12.53;57.60;98813.13;5053064;28;20681;-73
2023/04/03 01:21:28;;;;;;;2.50;2.07;;;;;;;12.47;58.18;98807.88;5054084;28;20195;-73
2023/04/03 01:24:09;;;;;;;1.60;1.50;;;;;;;12.48;58.53;98814.81;5053451;28;20241;-71
2023/04/03 01:26:36;;;;;;;1.70;1.60;;;;;;;12.49;58.48;98803.94;5069164;28;20544;-71
2023/04/03 01:29:04;;;;;;;2.80;2.10;;;;;;;12.45;58.82;98804.63;5073381;28;20191;-72
2023/04/03 01:31:47;;;;;;;1.77;1.67;;;;;;;12.46;58.57;98800.94;5070181;28;20199;-72
2023/04/03 01:34:13;;;;;;;1.93;1.83;;;;;;;12.40;58.74;98804.47;5073189;28;20771;-71
2023/04/03 01:36:40;;;;;;;1.90;1.80;;;;;;;12.41;58.67;98800.78;5072981;28;20748;-72
2023/04/03 01:39:07;;;;;;;4.10;1.90;;;;;;;12.40;58.52;98799.16;5073470;28;20195;-71
2023/04/03 01:41:34;;;;;;;3.90;1.87;;;;;;;12.42;58.35;98797.88;5073321;28;20728;-72
2023/04/03 01:44:01;;;;;;;2.87;2.30;;;;;;;12.44;58.19;98806.47;5073677;28;20195;-72
2023/04/03 01:46:28;;;;;;;7.10;2.23;;;;;;;12.41;58.11;98801.59;5073637;28;20203;-72
2023/04/03 01:48:56;;;;;;;5.97;1.83;;;;;;;12.42;58.42;98807.75;5073100;28;20248;-73
2023/04/03 01:51:23;;;;;;;2.43;2.23;;;;;;;12.43;58.91;98815.50;5073546;28;20248;-73
2023/04/03 01:53:49;;;;;;;10.27;2.80;;;;;;;12.39;59.57;98817.00;5073278;28;20283;-72
2023/04/03 01:56:16;;;;;;;10.90;2.23;;;;;;;12.36;59.75;98821.94;5073090;28;20198;-71
2023/04/03 01:58:43;;;;;;;8.77;2.53;;;;;;;12.33;59.20;98817.06;5072402;28;20280;-71
2023/04/03 02:01:10;;;;;;;9.67;2.50;;;;;;;12.36;59.06;98814.78;5057119;28;20592;-70
2023/04/03 02:03:36;;;;;;;7.50;2.23;;;;;;;12.36;58.85;98820.09;5053282;28;20284;-70
2023/04/03 02:06:05;;;;;;;5.23;1.87;;;;;;;12.37;58.77;98829.72;5053383;28;20268;-70
2023/04/03 02:08:32;;;;;;;2.70;1.67;;;;;;;12.39;58.89;98824.16;5052368;28;20199;-71
2023/04/03 02:10:58;;;;;;;4.47;1.83;;;;;;;12.38;58.76;98819.88;5053286;28;20268;-70
2023/04/03 02:13:25;;;;;;;6.60;2.20;;;;;;;12.39;58.68;98824.97;5052209;28;20284;-72
2023/04/03 02:15:52;;;;;;;3.83;1.80;;;;;;;12.37;58.82;98819.06;5052014;28;20728;-72
2023/04/03 02:18:19;;;;;;;3.97;1.77;;;;;;;12.37;58.74;98821.72;5053177;28;20254;-71
2023/04/03 02:20:47;;;;;;;6.20;2.47;;;;;;;12.34;59.00;98819.53;5053080;28;20200;-72
2023/04/03 02:23:15;;;;;;;10.13;2.83;;;;;;;12.27;59.21;98816.13;5053179;28;20203;-71
2023/04/03 02:25:41;;;;;;;6.97;2.40;;;;;;;12.30;59.44;98821.00;5060907;28;20719;-71
2023/04/03 02:28:08;;;;;;;3.27;2.23;;;;;;;12.32;59.61;98815.44;5073308;28;20382;-73
2023/04/03 02:30:35;;;;;;;2.30;2.13;;;;;;;12.33;59.80;98825.06;5070659;28;20261;-72
2023/04/03 02:33:01;;;;;;;5.37;2.83;;;;;;;12.29;59.97;98824.69;5072866;28;20280;-74
2023/04/03 02:35:28;;;;;;;7.23;2.80;;;;;;;12.29;60.16;98819.34;5071981;28;20203;-72
2023/04/03 02:37:55;;;;;;;5.40;2.77;;;;;;;12.29;60.27;98827.34;5071657;28;20254;-72
2023/04/03 02:40:24;;;;;;;3.40;2.90;;;;;;;12.28;59.93;98820.41;5072327;28;20206;-72
2023/04/03 02:42:51;;;;;;;4.67;3.30;;;;;;;12.27;59.90;98823.28;5072440;28;20204;-73
2023/04/03 02:45:18;;;;;;;4.70;3.10;;;;;;;12.23;60.04;98825.59;5072454;28;20256;-72
2023/04/03 02:47:44;;;;;;;6.00;3.43;;;;;;;12.18;59.61;98820.13;5072500;28;20627;-74
2023/04/03 02:50:11;;;;;;;5.17;3.60;;;;;;;12.16;59.50;98819.50;5072028;28;20195;-73
2023/04/03 02:52:38;;;;;;;3.33;3.03;;;;;;;12.17;59.46;98815.81;5072595;28;20353;-73
2023/04/03 02:55:05;;;;;;;10.63;3.47;;;;;;;12.16;59.76;98814.19;5072159;28;20733;-72
2023/04/03 02:57:34;;;;;;;13.00;4.70;;;;;;;12.15;59.88;98817.06;5072131;28;20733;-73
2023/04/03 03:00:00;;;;;;;6.87;3.60;;;;;;;12.14;60.10;98821.59;5066954;28;20257;-72
2023/04/03 03:02:27;;;;;;;5.00;3.43;;;;;;;12.14;60.27;98810.94;5052205;28;20191;-72
2023/04/03 03:04:54;;;;;;;6.17;3.83;;;;;;;12.12;59.72;98813.00;5052009;28;20634;-71
2023/04/03 03:07:20;;;;;;;9.67;3.90;;;;;;;12.12;59.42;98813.00;5052278;28;20302;-71
2023/04/03 03:09:47;;;;;;;7.27;3.87;;;;;;;12.13;59.32;98805.84;5051892;28;20321;-70
2023/04/03 03:12:14;;;;;;;7.60;4.00;;;;;;;12.11;59.26;98803.41;5051773;28;20205;-71
2023/04/03 03:14:42;;;;;;;4.03;3.73;;;;;;;12.05;59.45;98790.97;5051877;28;20223;-71
2023/04/03 03:17:09;;;;;;;5.27;4.30;;;;;;;11.87;59.86;98788.31;5051660;28;20583;-71
2023/04/03 03:19:36;;;;;;;5.40;3.53;;;;;;;11.76;60.89;98791.69;5051769;28;20272;-71
2023/04/03 03:22:02;;;;;;;7.63;3.97;;;;;;;11.74;61.36;98791.13;5051908;28;20260;-71
2023/04/03 03:24:29;;;;;;;6.30;4.00;;;;;;;11.69;61.41;98801.63;5050741;28;20321;-71
2023/04/03 03:26:56;;;;;;;14.63;12.20;;;;;;;11.55;61.61;98792.09;5070126;28;20227;-72
2023/04/03 03:29:23;;;;;;;11.93;5.70;;;;;;;11.47;61.79;98789.69;5071424;28;20254;-71
2023/04/03 03:31:51;;;;;;;6.70;4.13;;;;;;;11.47;62.44;98786.25;5069437;28;20570;-71
2023/04/03 03:34:17;;;;;;;12.43;3.70;;;;;;;11.47;62.58;98780.94;5071525;28;20706;-71
2023/04/03 03:36:44;;;;;;;21.33;8.33;;;;;;;11.38;62.55;98772.41;5071837;28;20197;-71
2023/04/03 03:39:11;;;;;;;14.00;4.77;;;;;;;11.38;62.99;98780.38;5070775;28;20276;-72
2023/04/03 03:41:38;;;;;;;16.80;4.83;;;;;;;11.35;63.10;98783.47;5069735;28;20185;-73
2023/04/03 03:44:05;;;;;;;13.33;5.17;;;;;;;11.37;63.44;98791.22;5071086;28;20197;-72
2023/04/03 03:46:31;;;;;;;24.07;6.03;;;;;;;11.30;63.72;98783.31;5071382;28;20195;-72
2023/04/03 03:49:00;;;;;;;17.13;5.30;;;;;;;11.20;63.46;98787.50;5071659;28;20641;-74
2023/04/03 03:51:26;;;;;;;11.67;5.10;;;;;;;11.07;64.07;98799.84;5071226;28;20197;-72
2023/04/03 03:53:53;;;;;;;18.10;5.33;;;;;;;10.96;64.89;98786.47;5071318;28;20217;-71
2023/04/03 03:56:20;;;;;;;16.53;5.67;;;;;;;11.02;64.84;98806.84;5070874;28;20708;-71
2023/04/03 03:58:46;;;;;;;12.63;5.70;;;;;;;11.03;65.30;98803.19;5071807;28;20256;-71
2023/04/03 04:01:13;;;;;;;25.33;5.77;;;;;;;11.00;65.06;98808.91;5071237;28;20192;-70
2023/04/03 04:03:40;;;;;;;14.60;6.03;;;;;;;10.98;66.28;98810.94;5071080;28;20258;-71
2023/04/03 04:06:08;;;;;;;11.33;5.37;;;;;;;10.90;65.60;98800.59;5070629;28;20628;-71
2023/04/03 04:08:35;;;;;;;9.17;5.43;;;;;;;10.79;65.88;98798.63;5071183;28;20200;-72
2023/04/03 04:11:02;;;;;;;20.07;5.23;;;;;;;10.87;65.58;98819.63;5071385;28;20194;-71
2023/04/03 04:13:28;;;;;;;20.47;6.37;;;;;;;10.90;65.35;98819.19;5069661;28;20291;-72
2023/04/03 04:15:55;;;;;;;15.63;5.80;;;;;;;10.96;65.36;98821.00;5071400;28;20224;-72
2023/04/03 04:18:22;;;;;;;18.43;5.70;;;;;;;11.03;64.97;98821.78;5071498;28;20573;-72
2023/04/03 04:20:49;;;;;;;8.37;5.70;;;;;;;11.06;64.21;98820.53;5070829;28;20208;-71
2023/04/03 04:23:17;;;;;;;15.67;7.77;;;;;;;11.03;64.57;98833.19;5070927;28;20198;-70
2023/04/03 04:25:45;;;;;;;15.53;6.20;;;;;;;11.00;65.12;98844.25;5071272;28;20350;-70
2023/04/03 04:28:12;;;;;;;19.47;7.80;;;;;;;10.97;64.30;98846.53;5070428;28;20278;-70
2023/04/03 04:30:39;;;;;;;22.10;7.27;;;;;;;11.00;64.34;98840.81;5070902;28;20198;-72
2023/04/03 04:33:06;;;;;;;23.63;6.57;;;;;;;11.06;64.58;98839.94;5071182;28;20229;-71
2023/04/03 04:35:33;;;;;;;18.93;6.20;;;;;;;11.12;63.66;98841.75;5071371;28;20730;-71
2023/04/03 04:38:00;;;;;;;20.33;6.87;;;;;;;11.25;64.02;98835.50;5075031;28;20201;-71
2023/04/03 04:40:28;;;;;;;13.60;5.10;;;;;;;11.39;63.05;98827.19;5074725;28;20247;-70
2023/04/03 04:42:55;;;;;;;8.00;5.27;;;;;;;11.67;61.66;98846.22;5072498;28;20254;-71
2023/04/03 04:45:22;;;;;;;24.27;5.80;;;;;;;11.80;60.97;98840.78;5074473;28;20194;-70
2023/04/03 04:47:51;;;;;;;46.57;7.37;;;;;;;11.97;60.40;98835.72;5074488;28;20201;-70
2023/04/03 04:50:18;;;;;;;18.97;6.00;;;;;;;12.01;59.83;98837.69;5074992;28;20276;-71
2023/04/03 04:52:44;;;;;;;29.23;12.07;;;;;;;12.26;59.75;98851.78;5074740;28;20276;-71
2023/04/03 04:55:11;;;;;;;30.23;7.17;;;;;;;12.63;59.00;98853.38;5074274;28;20276;-71
2023/04/03 04:57:39;;;;;;;46.23;6.83;;;;;;;13.03;57.97;98862.47;5074458;28;20264;-71
2023/04/03 05:00:07;;;;;;;23.50;6.60;;;;;;;13.37;56.23;98867.09;5074423;28;20192;-72
2023/04/03 05:02:34;;;;;;;43.13;7.10;;;;;;;13.47;55.79;98866.50;5073692;28;20206;-74
2023/04/03 05:05:01;;;;;;;38.63;7.10;;;;;;;13.49;55.10;98870.59;5074167;28;20204;-72
2023/04/03 05:07:27;;;;;;;27.23;6.70;;;;;;;13.40;55.30;98865.84;5073827;28;20253;-72
2023/04/03 05:09:54;;;;;;;12.37;5.90;;;;;;;13.25;55.99;98874.25;5074294;28;20627;-79
2023/04/03 05:12:22;;;;;;;20.37;8.37;;;;;;;13.27;56.13;98872.16;5073721;28;20668;-75
2023/04/03 05:14:50;;;;;;;19.37;6.77;;;;;;;13.33;55.79;98860.59;5074294;28;20224;-75
2023/04/03 05:17:17;;;;;;;33.67;15.70;;;;;;;13.35;55.45;98853.16;5074104;28;20195;-74
2023/04/03 05:19:44;;;;;;;36.70;14.33;;;;;;;13.49;54.78;98869.78;5074473;28;20200;-73
2023/04/03 05:22:11;;;;;;;30.60;9.83;;;;;;;13.62;54.60;98874.91;5073824;28;20196;-73
2023/04/03 05:24:37;;;;;;;55.57;9.23;;;;;;;13.64;55.10;98870.97;5073868;28;20577;-79
2023/04/03 05:27:04;;;;;;;36.70;7.33;;;;;;;13.70;55.22;98883.41;5073593;28;20227;-79
2023/04/03 05:29:31;;;;;;;38.80;7.93;;;;;;;13.79;54.93;98875.84;5070495;28;20250;-78
2023/04/03 05:31:59;;;;;;;18.40;8.07;;;;;;;13.76;54.02;98887.81;5073759;28;20199;-77
2023/04/03 05:34:26;;;;;;;32.40;8.63;;;;;;;13.79;54.56;98892.69;5073445;28;20314;-79
2023/04/03 05:36:54;;;;;;;18.77;7.63;;;;;;;13.84;53.84;98884.78;5073832;28;20196;-82
2023/04/03 05:39:22;;;;;;;10.77;6.40;;;;;;;14.01;53.78;98893.72;5078222;28;20593;-77
2023/04/03 05:41:49;;;;;;;15.37;6.53;;;;;;;13.87;53.20;98878.16;5093541;28;20195;-77
2023/04/03 05:44:16;;;;;;;13.67;6.37;;;;;;;13.91;52.95;98896.19;5093616;28;20585;-74
2023/04/03 05:46:45;;;;;;;9.30;5.97;;;;;;;13.90;53.63;98897.22;5092733;28;20244;-76
2023/04/03 05:49:13;;;;;;;10.20;6.00;;;;;;;13.97;53.55;98895.22;5092699;28;20714;-76
2023/04/03 05:51:40;;;;;;;17.70;5.93;;;;;;;14.00;52.67;98897.44;5093262;28;20199;-78
2023/04/03 05:54:13;;;;;;;9.13;5.00;;;;;;;14.14;52.87;98900.69;5093414;28;20703;-77
2023/04/03 05:56:40;;;;;;;18.57;5.53;;;;;;;14.25;52.12;98908.72;5093497;28;20226;-75
2023/04/03 05:59:07;;;;;;;10.23;4.67;;;;;;;14.21;51.40;98909.44;5093094;28;20217;-73
2023/04/03 06:01:35;;;;;;;10.17;3.73;;;;;;;14.24;50.68;98907.13;5093050;28;20684;-72
2023/04/03 06:04:02;;;;;;;5.63;3.93;;;;;;;14.28;50.48;98908.28;5093447;28;20209;-78
2023/04/03 06:06:47;;;;;;;11.20;4.13;;;;;;;14.32;50.59;98904.09;5093115;28;20294;-77
2023/04/03 06:09:14;;;;;;;5.43;4.00;;;;;;;14.42;50.40;98903.50;5093215;28;20232;-78
2023/04/03 06:11:41;;;;;;;7.83;3.83;;;;;;;14.41;50.45;98907.19;5092939;28;20187;-76
2023/04/03 06:14:08;;;;;;;42.63;6.30;;;;;;;14.38;50.72;98907.69;5093010;28;20218;-76
2023/04/03 06:16:35;;;;;;;35.90;5.77;;;;;;;14.41;50.99;98913.38;5093140;28;20191;-77
2023/04/03 06:19:02;;;;;;;14.30;4.60;;;;;;;14.44;50.40;98917.44;5093226;28;20252;-78
2023/04/03 06:21:30;;;;;;;11.63;4.30;;;;;;;14.39;50.02;98925.34;5092406;28;20253;-77
2023/04/03 06:23:58;;;;;;;6.17;4.37;;;;;;;14.31;50.45;98915.81;5093161;28;20217;-78
2023/04/03 06:26:25;;;;;;;6.57;5.43;;;;;;;14.25;51.07;98919.41;5078094;28;20187;-73
2023/04/03 06:28:51;;;;;;;4.93;4.40;;;;;;;14.16;50.98;98915.44;5072697;28;20186;-72
2023/04/03 06:31:18;;;;;;;7.30;4.07;;;;;;;14.06;51.83;98901.88;5072690;28;20221;-79
2023/04/03 06:33:45;;;;;;;7.20;4.03;;;;;;;14.12;51.59;98894.75;5072355;28;20219;-76
2023/04/03 06:36:12;;;;;;;12.70;4.17;;;;;;;14.27;51.41;98903.16;5072014;28;20204;-79
2023/04/03 06:38:39;;;;;;;5.13;3.63;;;;;;;14.37;50.68;98904.19;5072993;28;20195;-82
2023/04/03 06:41:08;;;;;;;10.33;4.83;;;;;;;14.54;50.95;98907.75;5072036;28;20265;-81
2023/04/03 06:43:34;;;;;;;28.23;5.83;;;;;;;14.68;50.33;98919.84;5072494;28;20291;-73
2023/04/03 06:46:01;;;;;;;13.93;4.30;;;;;;;14.88;50.14;98933.63;5072078;28;20620;-74
2023/04/03 06:48:28;;;;;;;5.93;3.80;;;;;;;14.92;49.25;98933.94;5072210;28;20227;-77
2023/04/03 06:50:55;;;;;;;5.57;4.23;;;;;;;14.91;48.65;98919.75;5072147;28;20279;-79
2023/04/03 06:53:22;;;;;;;6.33;3.90;;;;;;;15.14;48.88;98926.88;5071548;28;20622;-72
2023/04/03 06:55:49;;;;;;;12.90;4.13;;;;;;;15.23;48.99;98923.59;5071195;28;20302;-73
2023/04/03 06:58:18;;;;;;;7.70;3.57;;;;;;;15.24;48.46;98933.22;5068899;28;20253;-72
2023/04/03 07:00:45;;;;;;;3.57;3.30;;;;;;;15.31;49.07;98927.72;5071468;28;20279;-69
2023/04/03 07:03:11;;;;;;;5.00;3.57;;;;;;;15.31;48.84;98925.06;5071652;28;20617;-67
2023/04/03 07:05:38;;;;;;;5.73;3.83;;;;;;;15.40;49.32;98927.13;5071581;28;20208;-74
2023/04/03 07:08:05;;;;;;;13.70;4.30;;;;;;;15.39;49.36;98933.56;5070677;28;20237;-79
2023/04/03 07:10:32;;;;;;;5.63;3.63;;;;;;;15.42;49.44;98935.75;5074302;28;20192;-77
2023/04/03 07:12:58;;;;;;;7.57;3.60;;;;;;;15.47;49.16;98921.63;5074219;28;20192;-75
2023/04/03 07:15:26;;;;;;;13.27;4.47;;;;;;;15.65;48.85;98938.28;5073698;28;20261;-81
2023/04/03 07:17:53;;;;;;;9.37;3.90;;;;;;;15.64;49.19;98931.31;5073238;28;20704;-78
2023/04/03 07:20:20;;;;;;;7.17;4.00;;;;;;;15.80;49.05;98935.88;5071359;28;20266;-75
2023/04/03 07:22:46;;;;;;;10.87;3.87;;;;;;;15.83;48.15;98929.22;5071188;28;20202;-80
2023/04/03 07:25:13;;;;;;;20.67;4.87;;;;;;;15.80;48.53;98922.50;5071171;28;20192;-73
2023/04/03 07:27:40;;;;;;;7.67;3.97;;;;;;;15.74;48.45;98920.78;5071026;28;20224;-73
2023/04/03 07:30:09;;;;;;;20.10;4.67;;;;;;;15.60;49.02;98914.13;5070770;28;20192;-78
2023/04/03 07:32:37;;;;;;;20.93;4.33;;;;;;;15.67;49.37;98920.13;5069094;28;20657;-77
2023/04/03 07:35:04;;;;;;;33.67;5.20;;;;;;;15.67;49.36;98914.78;5070577;28;20216;-76
2023/04/03 07:37:32;;;;;;;6.13;3.50;;;;;;;15.64;49.34;98920.59;5071245;28;20274;-78
2023/04/03 07:39:58;;;;;;;7.80;4.30;;;;;;;15.65;49.10;98916.88;5070533;28;20207;-75
2023/04/03 07:42:26;;;;;;;19.87;4.07;;;;;;;15.63;47.94;98924.34;5068475;28;20199;-74
2023/04/03 07:44:53;;;;;;;3.53;3.30;;;;;;;15.79;47.94;98918.19;5070772;28;20200;-80
2023/04/03 07:47:20;;;;;;;7.70;3.43;;;;;;;15.93;47.49;98911.44;5071454;28;20256;-80
2023/04/03 07:49:48;;;;;;;9.27;4.17;;;;;;;15.90;48.23;98913.81;5071330;28;20436;-78
2023/04/03 07:52:15;;;;;;;3.70;3.40;;;;;;;15.97;47.04;98919.00;5071167;28;20623;-75
2023/04/03 07:54:42;;;;;;;3.27;2.60;;;;;;;16.07;46.14;98913.78;5071091;28;20226;-81
2023/04/03 07:57:09;;;;;;;3.90;3.10;;;;;;;16.22;45.87;98906.81;5070890;28;20615;-82
2023/04/03 07:59:36;;;;;;;7.03;3.43;;;;;;;16.44;45.32;98914.88;5070830;28;20618;-83
2023/04/03 08:02:04;;;;;;;3.30;3.00;;;;;;;16.56;44.66;98907.56;5068616;28;20188;-81
2023/04/03 08:04:31;;;;;;;4.13;3.20;;;;;;;16.69;44.58;98899.94;5070916;28;20192;-66
2023/04/03 08:06:59;;;;;;;6.97;3.03;;;;;;;16.90;44.01;98903.72;5070263;28;20219;-66
2023/04/03 08:09:26;;;;;;;3.97;3.63;;;;;;;16.99;43.89;98902.19;5069907;28;20192;-65
2023/04/03 08:11:53;;;;;;;3.47;3.00;;;;;;;17.17;42.35;98899.97;5073804;28;20230;-65
2023/04/03 08:14:20;;;;;;;2.53;2.33;;;;;;;17.34;42.47;98905.25;5074015;28;20229;-64
2023/04/03 08:16:48;;;;;;;9.53;2.83;;;;;;;17.49;41.77;98902.75;5066152;28;20192;-66
2023/04/03 08:19:17;;;;;;;3.20;2.90;;;;;;;17.69;41.63;98897.56;5074593;28;20210;-66
2023/04/03 08:21:44;;;;;;;4.53;3.33;;;;;;;17.93;40.55;98893.44;5074759;28;20665;-65
2023/04/03 08:24:13;;;;;;;3.13;2.83;;;;;;;18.15;40.11;98892.25;5075083;28;20679;-66
2023/04/03 08:26:40;;;;;;;7.50;3.23;;;;;;;18.13;39.38;98886.31;5074172;28;20245;-64
2023/04/03 08:29:06;;;;;;;4.80;3.27;;;;;;;18.10;39.29;98888.72;5074563;28;20201;-64
2023/04/03 08:31:33;;;;;;;9.10;3.43;;;;;;;18.11;39.35;98884.97;5073117;28;20673;-64
2023/04/03 08:34:00;;;;;;;4.87;3.77;;;;;;;18.12;39.81;98881.19;5074486;28;20207;-65
2023/04/03 08:36:28;;;;;;;7.67;3.50;;;;;;;18.10;39.46;98872.59;5074265;28;20277;-65
2023/04/03 08:38:56;;;;;;;5.27;4.33;;;;;;;18.08;39.74;98875.53;5074327;28;20200;-65
2023/04/03 08:41:32;;;;;;;7.03;4.20;;;;;;;17.89;40.40;98865.47;5074434;28;20270;-65
2023/04/03 08:44:05;;;;;;;4.73;4.37;;;;;;;17.96;40.31;98861.50;5074621;28;20263;-65
2023/04/03 08:46:43;;;;;;;13.13;5.17;;;;;;;17.91;40.67;98857.94;5074636;28;20184;-65
2023/04/03 08:49:17;;;;;;;11.37;5.60;;;;;;;17.75;41.36;98853.53;5074318;28;20250;-64
2023/04/03 08:51:49;;;;;;;6.53;5.80;;;;;;;17.73;41.31;98847.63;5074210;28;20608;-64
2023/04/03 08:54:25;;;;;;;6.53;4.93;;;;;;;17.31;42.20;98849.41;5074021;28;20183;-65
2023/04/03 08:56:54;;;;;;;5.17;4.20;;;;;;;16.75;43.62;98837.28;5074426;28;20215;-65
2023/04/03 08:59:28;;;;;;;7.30;3.53;;;;;;;16.80;44.23;98837.34;5074015;28;20639;-65
2023/04/03 09:01:56;;;;;;;7.90;4.40;;;;;;;16.64;44.68;98845.44;5074017;28;20624;-64
2023/04/03 09:04:22;;;;;;;5.00;4.60;;;;;;;16.69;44.44;98832.91;5073605;28;20745;-66
2023/04/03 09:06:55;;;;;;;7.97;4.10;;;;;;;16.77;44.75;98834.31;5072530;28;20622;-65
2023/04/03 09:09:33;;;;;;;8.33;4.43;;;;;;;16.48;45.75;98835.59;5073906;28;20198;-65
2023/04/03 09:12:14;;;;;;;11.73;4.57;;;;;;;16.32;46.65;98836.44;5074199;28;20274;-65
2023/04/03 09:14:47;;;;;;;4.83;4.03;;;;;;;16.42;47.04;98852.69;5073502;28;20223;-66
2023/04/03 09:17:20;;;;;;;11.13;4.57;;;;;;;16.27;48.26;98839.03;5074305;28;20542;-65
2023/04/03 09:19:55;;;;;;;9.03;4.20;;;;;;;16.42;48.36;98844.66;5073654;28;20253;-65
2023/04/03 09:22:25;;;;;;;7.63;3.80;;;;;;;16.45;48.55;98836.13;5073547;28;20222;-65
2023/04/03 09:24:58;;;;;;;6.63;4.00;;;;;;;16.48;48.80;98831.06;5073692;28;20258;-65
2023/04/03 09:27:26;;;;;;;10.00;4.20;;;;;;;16.43;49.36;98832.84;5073562;28;20228;-63
2023/04/03 09:29:55;;;;;;;7.70;4.60;;;;;;;16.34;49.20;98837.81;5073041;28;20732;-65
2023/04/03 09:32:27;;;;;;;9.97;3.93;;;;;;;15.96;50.88;98834.34;5073456;28;20625;-66
2023/04/03 09:34:55;;;;;;;6.23;3.47;;;;;;;16.01;50.87;98827.19;5073576;28;20208;-65
2023/04/03 09:37:37;;;;;;;4.60;3.20;;;;;;;15.69;50.63;98820.81;5073713;28;20295;-65
2023/04/03 09:40:05;;;;;;;3.77;3.40;;;;;;;15.92;49.67;98825.97;5073506;28;20188;-64
2023/04/03 09:42:34;;;;;;;3.60;3.33;;;;;;;15.89;50.37;98826.50;5073566;28;20202;-65
2023/04/03 09:45:02;;;;;;;3.33;3.07;;;;;;;15.92;49.70;98820.63;5072300;28;20719;-65
2023/04/03 09:47:33;;;;;;;5.43;3.03;;;;;;;16.01;48.98;98813.81;5073002;28;20253;-66
2023/04/03 09:50:19;;;;;;;4.10;3.30;;;;;;;16.01;48.45;98823.69;5070736;28;20194;-66
2023/04/03 09:52:48;;;;;;;2.50;2.40;;;;;;;15.86;47.97;98806.34;5070905;28;20250;-67
2023/04/03 09:55:16;;;;;;;3.77;3.47;;;;;;;15.80;49.36;98801.97;5072722;28;20211;-65
2023/04/03 09:57:48;;;;;;;3.60;3.30;;;;;;;15.80;51.19;98791.28;5072964;28;20194;-66
2023/04/03 10:00:25;;;;;;;6.97;4.40;;;;;;;15.88;52.22;98802.63;5072742;28;20211;-65
2023/04/03 10:02:55;;;;;;;5.07;3.27;;;;;;;15.69;52.71;98816.25;5072988;28;20188;-64
2023/04/03 10:05:32;;;;;;;6.47;4.57;;;;;;;15.71;53.84;98819.53;5073231;28;20192;-65
2023/04/03 10:08:10;;;;;;;4.80;2.63;;;;;;;15.70;53.91;98815.22;5073255;28;20187;-66
2023/04/03 10:10:37;;;;;;;6.43;5.07;;;;;;;15.70;55.31;98811.72;5072827;28;20187;-65
2023/04/03 10:13:08;;;;;;;11.50;6.80;;;;;;;15.60;55.09;98796.31;5072717;28;20382;-65
2023/04/03 10:15:39;;;;;;;6.17;5.77;;;;;;;15.73;55.91;98801.34;5072702;28;20212;-66
2023/04/03 10:18:22;;;;;;;4.37;2.97;;;;;;;15.71;56.17;98797.28;5072880;28;20188;-65
2023/04/03 10:20:51;;;;;;;3.07;2.87;;;;;;;15.53;56.70;98795.66;5072058;28;20248;-66
2023/04/03 10:23:22;;;;;;;2.60;2.40;;;;;;;15.54;58.29;98808.03;5072351;28;20234;-65
2023/04/03 10:26:04;;;;;;;3.33;2.97;;;;;;;15.63;57.71;98801.19;5072801;28;20187;-65
2023/04/03 10:28:38;;;;;;;3.30;3.00;;;;;;;15.48;58.15;98771.50;5072737;28;20238;-65
2023/04/03 10:31:13;;;;;;;3.00;2.80;;;;;;;15.63;57.74;98795.84;5072629;28;20184;-64
2023/04/03 10:33:52;;;;;;;3.60;3.40;;;;;;;15.66;57.30;98794.53;5072074;28;20200;-65
2023/04/03 10:36:30;;;;;;;3.20;2.90;;;;;;;15.67;57.37;98801.50;5072336;28;20573;-64
2023/04/03 10:39:07;;;;;;;3.50;3.30;;;;;;;15.59;57.89;98800.06;5072624;28;20196;-66
2023/04/03 10:41:47;;;;;;;4.73;3.23;;;;;;;15.38;58.96;98786.59;5071898;28;20206;-64
2023/04/03 10:44:32;;;;;;;3.40;3.10;;;;;;;15.53;58.69;98806.38;5072009;28;20274;-64
2023/04/03 10:47:06;;;;;;;5.20;3.00;;;;;;;15.56;59.64;98805.91;5071791;28;20249;-65
2023/04/03 10:49:46;;;;;;;4.87;3.93;;;;;;;15.62;59.74;98821.00;5071958;28;20186;-66
2023/04/03 10:52:18;;;;;;;3.43;3.23;;;;;;;15.53;61.57;98809.06;5071689;28;20659;-66
2023/04/03 10:54:50;;;;;;;4.40;3.00;;;;;;;15.48;62.12;98808.19;5071830;28;20557;-65
2023/04/03 10:57:18;;;;;;;3.53;2.90;;;;;;;15.38;62.89;98818.72;5071837;28;20184;-65
2023/04/03 10:59:50;;;;;;;3.10;2.80;;;;;;;15.45;63.02;98814.81;5071435;28;20250;-65
2023/04/03 11:02:24;;;;;;;3.13;2.77;;;;;;;15.57;63.07;98812.88;5072036;28;20203;-65
2023/04/03 11:04:54;;;;;;;3.80;3.00;;;;;;;15.61;65.82;98814.00;5072049;28;20191;-66
2023/04/03 11:07:23;;;;;;;3.30;3.00;;;;;;;15.67;64.94;98829.09;5071228;28;20245;-64
2023/04/03 11:09:52;;;;;;;3.30;3.07;;;;;;;15.62;64.96;98821.00;5071258;28;20279;-64
2023/04/03 11:12:25;;;;;;;3.33;3.13;;;;;;;15.60;64.76;98822.28;5070355;28;20899;-64
2023/04/03 11:14:57;;;;;;;4.03;3.57;;;;;;;15.63;64.81;98814.59;5071967;28;20188;-66
2023/04/03 11:17:32;;;;;;;3.17;2.90;;;;;;;15.65;65.21;98809.00;5071840;28;20191;-65
2023/04/03 11:20:07;;;;;;;3.60;2.93;;;;;;;15.59;65.56;98810.78;5071350;28;20665;-66
2023/04/03 11:22:38;;;;;;;4.13;3.70;;;;;;;15.69;66.61;98810.13;5071408;28;20187;-64
2023/04/03 11:25:19;;;;;;;3.90;3.60;;;;;;;15.62;68.07;98796.09;5071472;28;20191;-66
2023/04/03 11:27:51;;;;;;;3.77;3.33;;;;;;;15.71;68.13;98799.97;5056152;28;20223;-65
2023/04/03 11:30:22;;;;;;;4.47;4.17;;;;;;;15.70;69.73;98793.81;5070525;28;20191;-65
2023/04/03 11:33:16;;;;;;;3.37;3.17;;;;;;;15.79;69.46;98789.66;5068492;28;20192;-65
2023/04/03 11:35:48;;;;;;;4.57;3.80;;;;;;;15.66;70.37;98790.00;5069960;28;20641;-65
2023/04/03 11:38:22;;;;;;;3.50;3.20;;;;;;;15.75;70.13;98793.06;5069076;28;20588;-66
2023/04/03 11:40:50;;;;;;;3.80;3.03;;;;;;;15.85;69.62;98774.47;5070451;28;20228;-66